Warning: Javascript must be enabled to use all the features on this page!


Page Loading - Please Wait...

Click to hideNews Bulletins

Peak Streamflow for the Nation

USGS 02471001 CHICKASAW CREEK NEAR KUSHLA AL

Mobile County, Alabama
Hydrologic Unit Code 03160204
Latitude  30°48'10", Longitude  88°08'36" NAD27
Drainage area 125.00  square miles
Contributing drainage area 125.00  square miles
Gage datum 3.85 feet above NGVD29
Output formats
Table
Graph
Tab-separated file
peakfq (watstore) format
Reselect output format
Water
Year
Date Gage
Height
(feet)
Stream-
flow
(cfs)
1952 1952-05-20 10.103 1,540
1953 1953-04-26 11.963 1,920
1954 1953-12-13 7.383 1,030
1955 1955-04-13 25.403 35,000
1956 1956-03-12 14.403 4,270
1957 1956-12-24 15.903 7,090
1958 1957-11-15 12.703 2,730
1959 1959-06-02 20.633 17,000
1960 1960-05-07 15.363 5,590
1961 1961-06-20 15.903 6,340
1962 1961-11-15 19.973 14,700
1963 1963-01-20 9.303 1,430
1964 1964-04-27 14.743 4,610
1965 1965-01-23 18.803 12,000
1966 1965-10-01 12.383 2,500
1967 1967-01-02 14.353 4,120
1968 1967-10-31 14.703 4,330
1969 1969-08-18 17.58 6,830
1970 1970-06-03 15.91 3,870
1971 1970-12-17 15.98 3,960
1972 1972-05-09 16.06 4,060
1973 1973-09-14 15.05 3,060
1974 1974-09-08 16.42 4,590
1975 1975-08-01 17.79 7,270
1976 1975-10-17 16.55 4,800
1977 1977-04-01 14.96 3,020
1978 1978-01-26 15.96 3,930
1979 1979-03-04 17.66 7,000
1980 1980-04-13 19.70 12,500
1981 1981-02-11 16.99 5,620
1982 1982-02-04 13.31 2,160
1983 1983-04-07 20.38 15,800
1984 1984-05-23 16.18 4,220
1985 1985-09-24 16.15 4,180
1986 1986-02-06 15.27 3,280
1987 1987-03-19 13.29 2,080
1988 1988-09-17 15.42 3,410
1989 1989-06-09 13.36 2,220
1990 1990-03-16 20.29 15,300
1991 1991-05-11 18.88 9,810
1992 1992-02-18 15.53 3,510
1993 1993-05-26 17.55 6,680
1994 1994-06-25 10.92 1,400
1995 1995-08-05 17.10 5,820
1996 1995-12-19 19.20 10,800
1997 1997-07-20 16.11 4,140
1998 1998-09-29 22.36 19,900
2000 1999-10-08 14.43 2,920
2001 2001-03-04 15.38 3,620
2002 2002-09-26 18.16 7,520
2003 2003-07-01 15.85 4,050
2004 2004-05-01 17.15 5,820
2005 2005-04-01 17.60 6,520
2006 2006-02-26 8.40 753
2007 2007-01-01 12.59 1,940
2008 2008-09-02 18.80 8,920
2009 2009-03-28 17.34 6,110
2010 2010-05-04 16.65 5,070
2011 2011-07-17 11.48 1,530
2012 2012-08-31 15.90 4,100
2013 2013-02-26 16.70 5,150
2014 2014-04-30 17.88 6,840
2015 2015-05-17 19.09 9,610
2016 2015-10-27 13.82 2,620
2017 2017-01-02 17.24 5,870
2018 2017-10-09   3,830
2019 2019-04-06   1,930
2020 2019-10-31   6,610
?
  Peak Gage-Height Qualification Codes.